Startpagina
METAR-TAF:

METAR-TAF

Vliegvelden :

Internationale luchthaven Minneapolis-Saint Paul

Minneapolis, Minnesota, Verenigde Staten

breedte: 44-52-59N, lengte: 093-13-44W, hoogte: 256 m

Actueel weer

Dit bericht is 20 minuten geleden gemaakt, om 09:53 UTC
Wind 4 kt uit het zuidoosten
Temperatuur 11°C
Vochtigheid 87%
Druk 1018 hPa
Zicht: 16.1 km
Weinig wolken op 25000 ft

METAR: KMSP 230953Z 13004KT 10SM FEW250 11/09 A3005 RMK AO2 SLP175 T01110089

Tijdstip: 05:13 (10:13 UTC)

Verwachting

Dit bericht is 1 uur en het 11 minuten geleden gemaakt, om 09:02 UTC
Verwachting geldig van 23 om 09 UTC tot 24 om 12 UTC
Wind 5 kt uit het zuidoosten
Zicht: 10 km
Weinig wolken op 25000 ft
Van 23 om 1200 UTC
Wind 7 kt uit het zuidoosten
Zicht: 10 km
Weinig wolken op 25000 ft
Van 23 om 1900 UTC
Wind 12 kt uit het zuidzuidoosten met uitschieters tot 20 kt
Zicht: 10 km
Weinig wolken op 4000 ft
Verspreide wolken op 25000 ft

TAF: KMSP 230902Z 2309/2412 13005KT P6SM FEW250 FM231200 14007KT P6SM FEW250 FM231900 15012G20KT P6SM FEW040 SCT250

Waarnemingen en weersverwachtingen van meer dan 4000 vliegvelden (METAR en TAF).

De beschikbare stations zijn de gele en rode punten op de kaart.

Ga met uw muis naar het station om de naam te zien.

Klik dan om waarnemingen en weersverwachtingen te zien.

kaart wijzigen: klik op de groene knoppen met een zwart kruis om in te zoomen, op de groene knop met een streepje om uit te zoomen of op de groene pijlen voor aangrenzende kaarten.


METAR-TAF: